Klamath Falls International, OR

7:15 AM PDT on March 30, 2015 (GMT -0700)
Siskiyou County | | Change Station
CLOSE
Current Station
Airport
Location: Montague,
Elevation: 2648 ft
Nearby Weather Stations
Active Advisory: Special Statement

Elev 2648 ft 41.78 °N, 122.47 °W | Updated 22 minutes ago

Partly Cloudy
Partly Cloudy
37 °F
Feels Like 33 °F
N
5
Wind Variable Wind from ENE

Today
High -- | Low -- °F
--% Chance of Precip.
Yesterday
High -- | Low -- °F
Precip. -- in
6:53 AM 7:30 PM
Waxing Gibbous, 80% visible
Pressure 30.15 in
Visibility 10.0 miles
Clouds Clear
Windchill 33 °F
Dew Point 33 °F
Humidity 86%
Rainfall 0.00 in
Snow Depth Not available.
UV 0 out of 12
Pollen 9.40 out of 12
Air Quality Not available.
Flu Activity Not available.
METAR KSIY 301353Z AUTO 07004KT 10SM CLR 03/01 A3013 RMK AO2 SLP210 T00280006

More Conditions Fewer Conditions

Pressure 30.15 in
Visibility 10.0 miles
Clouds Clear
Windchill 33 °F
Dew Point 33 °F
Humidity 86%
Rainfall 0.00 in
Snow Depth Not available.
UV 0 out of 12
Pollen 9.40 out of 12
Air Quality Not available.
Flu Activity Not available.
METAR KSIY 301353Z AUTO 07004KT 10SM CLR 03/01 A3013 RMK AO2 SLP210 T00280006

More Conditions Fewer Conditions

10-Day Weather Forecast

Almanac

Astronomy

Mar. 30, 2015 Rise Set
Actual Time
Civil Twilight
Nautical Twilight
Astronomical Twilight
Moon
Length of Visible Light
Length of Day
Tomorrow will be .
, % of the Moon is Illuminated

Today's Extremes

State Highs State Lows

Community

WunderPhotos

Upload Photos

1,809,502 photos uploaded!

WunderBlogs® & News

Nearby

Air Quality

  Air Quality AQ Index Pollutant
Not available.

Snow Depth

Station Depth Elevation

Earthquake Activity

City Distance Mag. Time & Date
Minimum magnitude displayed is 2.5.

Coastal Water Temperatures

Place Temperature

Stations

Nearby Weather Stations

Station Location Temp. Windchill Dew Point Humidity Wind Precip. Elev Updated Type
                   
Special Statement
Statement as of 3:45 AM PDT on March 30, 2015

... Rapid change to colder weather early Tuesday...

A potent Spring cold front will move across the area Monday night
into Tuesday. Mild weather Monday will give way to a much colder
air mass Tuesday that is expected to generally persist into next
weekend. High temperatures Tuesday will be 15-25 degrees lower
than they are on Monday. The front will bring a period of light
precipitation Tuesday with snow levels dropping to about 5000
feet... but snow amounts will be an inch or less. Gusty westerly
winds are expected Tuesday afternoon and evening. Another
disturbance will bring some showers with snow levels potentially
down to valley floors on Wednesday... though amounts should remain
light.

Those intending to travel or have outdoor plans should stay tuned
for additional updates regarding this sharp change to colder
weather.


Btl